Time;durP1;ratioP1;P1;durP2;ratioP2;P2;SDS_P1;SDS_P2;PMS_P1;PMS_P2;Temp;Humidity;BMP_temperature;BMP_pressure;BME280_temperature;BME280_humidity;BME280_pressure;Samples;Min_cycle;Max_cycle;Signal;HPM_P1;HPM_P2
2023/07/16 00:01:31;;;;;;;8.73;3.30;;;26.50;99.90;;;;;;7398277;19;19914;-74
2023/07/16 00:03:57;;;;;;;8.93;3.60;;;26.50;99.90;;;;;;7375717;19;19936;-73
2023/07/16 00:06:22;;;;;;;8.27;3.15;;;26.40;99.90;;;;;;7395558;19;20395;-74
2023/07/16 00:08:48;;;;;;;11.65;3.35;;;26.40;99.90;;;;;;7401998;19;19922;-73
2023/07/16 00:11:14;;;;;;;9.50;3.17;;;26.40;99.90;;;;;;7399054;19;19915;-73
2023/07/16 00:13:45;;;;;;;9.45;3.05;;;26.50;99.90;;;;;;7405456;19;19927;-73
2023/07/16 00:16:11;;;;;;;8.93;3.42;;;26.50;99.90;;;;;;7403839;19;19926;-73
2023/07/16 00:18:37;;;;;;;10.57;3.05;;;26.50;99.90;;;;;;7406263;19;19919;-73
2023/07/16 00:21:03;;;;;;;12.27;3.00;;;26.40;99.90;;;;;;7403826;19;19915;-72
2023/07/16 00:23:29;;;;;;;9.93;3.40;;;26.30;99.90;;;;;;7404669;19;19933;-74
2023/07/16 00:25:54;;;;;;;9.35;3.22;;;26.10;99.90;;;;;;7402764;19;19925;-73
2023/07/16 00:28:20;;;;;;;10.82;2.95;;;26.10;99.90;;;;;;7401084;19;19934;-74
2023/07/16 00:30:46;;;;;;;9.73;3.20;;;26.00;99.90;;;;;;7401434;19;19921;-74
2023/07/16 00:33:12;;;;;;;7.82;2.60;;;26.00;99.90;;;;;;7403704;19;19918;-74
2023/07/16 00:35:37;;;;;;;6.05;3.00;;;25.90;99.90;;;;;;7403200;19;20321;-75
2023/07/16 00:38:03;;;;;;;11.13;2.30;;;25.80;99.90;;;;;;7402771;19;19925;-73
2023/07/16 00:40:29;;;;;;;9.10;2.50;;;25.80;99.90;;;;;;7401629;19;19902;-74
2023/07/16 00:42:55;;;;;;;9.60;2.60;;;25.90;99.90;;;;;;7404741;19;19922;-74
2023/07/16 00:45:20;;;;;;;7.15;2.38;;;25.80;99.90;;;;;;7403884;19;19953;-74
2023/07/16 00:47:46;;;;;;;8.35;2.45;;;25.80;99.90;;;;;;7405398;19;19944;-75
2023/07/16 00:50:12;;;;;;;8.45;2.45;;;25.90;99.90;;;;;;7400510;19;20025;-75
2023/07/16 00:52:39;;;;;;;8.70;2.20;;;25.90;99.90;;;;;;7402889;19;19922;-74
2023/07/16 00:55:06;;;;;;;7.78;2.15;;;26.00;99.90;;;;;;7402438;19;19922;-75
2023/07/16 00:57:33;;;;;;;5.85;1.83;;;26.00;99.90;;;;;;7402535;19;19946;-75
2023/07/16 00:59:59;;;;;;;8.82;2.20;;;25.90;99.50;;;;;;7406332;19;19919;-75
2023/07/16 01:02:25;;;;;;;9.60;1.73;;;25.90;99.20;;;;;;7403254;19;20522;-75
2023/07/16 01:04:52;;;;;;;10.52;1.95;;;25.90;99.20;;;;;;7404206;19;20462;-74
2023/07/16 01:07:21;;;;;;;9.13;1.50;;;25.80;99.00;;;;;;7402599;19;20343;-74
2023/07/16 01:09:47;;;;;;;9.80;2.10;;;25.80;99.10;;;;;;7404294;19;19955;-74
2023/07/16 01:12:13;;;;;;;7.45;1.67;;;25.80;98.90;;;;;;7403394;19;19914;-74
2023/07/16 01:14:40;;;;;;;5.45;1.42;;;25.80;98.80;;;;;;7401578;19;19922;-74
2023/07/16 01:17:06;;;;;;;9.10;1.60;;;25.80;98.80;;;;;;7402592;19;19933;-74
2023/07/16 01:19:33;;;;;;;7.57;1.67;;;25.80;98.80;;;;;;7401735;19;19927;-74
2023/07/16 01:22:27;;;;;;;7.30;1.77;;;25.70;98.80;;;;;;7403196;19;19915;-74
2023/07/16 01:25:16;;;;;;;9.43;1.98;;;25.70;98.90;;;;;;7402732;19;19922;-74
2023/07/16 01:28:03;;;;;;;7.82;1.88;;;25.70;98.90;;;;;;7402427;19;20663;-75
2023/07/16 01:30:29;;;;;;;5.80;1.70;;;25.70;99.00;;;;;;7402370;19;19907;-74
2023/07/16 01:32:56;;;;;;;7.95;1.75;;;25.70;99.00;;;;;;7402543;19;19938;-74
2023/07/16 01:35:22;;;;;;;7.45;1.63;;;25.70;98.90;;;;;;7399665;19;21054;-73
2023/07/16 01:37:48;;;;;;;10.15;1.92;;;25.70;98.90;;;;;;7399780;19;20430;-75
2023/07/16 01:40:14;;;;;;;7.75;1.42;;;25.70;98.90;;;;;;7400133;19;19925;-74
2023/07/16 01:42:40;;;;;;;8.98;2.05;;;25.70;98.90;;;;;;7401332;19;19918;-75
2023/07/16 01:45:06;;;;;;;7.93;1.45;;;25.70;98.90;;;;;;7401508;19;19918;-74
2023/07/16 01:47:59;;;;;;;10.15;1.75;;;25.60;98.90;;;;;;7404409;19;19915;-75
2023/07/16 01:50:24;;;;;;;7.10;1.58;;;25.70;99.00;;;;;;7398514;19;19914;-74
2023/07/16 01:52:50;;;;;;;6.97;1.50;;;25.70;98.90;;;;;;7402800;19;19947;-74
2023/07/16 01:55:16;;;;;;;11.57;1.98;;;25.70;99.00;;;;;;7399453;19;19932;-74
2023/07/16 01:57:42;;;;;;;8.35;1.48;;;25.60;99.00;;;;;;7401303;19;19947;-74
2023/07/16 02:00:08;;;;;;;11.63;1.48;;;25.50;99.20;;;;;;7400986;19;19939;-74
2023/07/16 02:02:34;;;;;;;;;;;25.50;99.40;;;;;;7404771;19;19934;-74
2023/07/16 02:04:59;;;;;;;9.48;2.03;;;25.50;99.60;;;;;;7400153;19;20312;-74
2023/07/16 02:07:25;;;;;;;8.13;2.38;;;25.40;99.80;;;;;;7401057;19;20256;-74
2023/07/16 02:09:51;;;;;;;8.20;1.58;;;25.40;99.90;;;;;;7400912;19;19919;-74
2023/07/16 02:12:17;;;;;;;10.02;1.40;;;25.30;99.90;;;;;;7399358;19;19926;-74
2023/07/16 02:14:42;;;;;;;13.00;2.80;;;25.20;99.90;;;;;;7402913;19;20283;-74
2023/07/16 02:17:08;;;;;;;8.60;1.63;;;25.00;99.90;;;;;;7401089;19;19922;-74
2023/07/16 02:19:34;;;;;;;11.27;1.73;;;25.00;99.90;;;;;;7403067;19;19949;-74
2023/07/16 02:22:00;;;;;;;6.65;1.52;;;25.00;99.90;;;;;;7402785;19;19926;-74
2023/07/16 02:24:25;;;;;;;8.02;1.75;;;25.00;99.90;;;;;;7380379;19;19922;-74
2023/07/16 02:26:51;;;;;;;10.80;1.60;;;25.00;99.90;;;;;;7401128;19;20586;-74
2023/07/16 02:29:17;;;;;;;10.00;2.25;;;25.00;99.90;;;;;;7377742;19;19938;-74
2023/07/16 02:31:45;;;;;;;8.68;1.85;;;25.00;99.90;;;;;;7396710;19;19934;-74
2023/07/16 02:34:12;;;;;;;11.82;2.08;;;25.00;99.90;;;;;;7397668;19;20021;-74
2023/07/16 02:36:37;;;;;;;11.55;2.10;;;25.00;99.90;;;;;;7401478;19;20255;-74
2023/07/16 02:39:03;;;;;;;10.05;2.30;;;25.00;99.90;;;;;;7400483;19;19917;-75
2023/07/16 02:41:30;;;;;;;8.43;1.98;;;25.00;99.90;;;;;;7400261;19;19911;-74
2023/07/16 02:44:01;;;;;;;11.48;2.03;;;25.00;99.90;;;;;;7402784;19;20007;-74
2023/07/16 02:46:27;;;;;;;9.80;1.90;;;25.00;99.90;;;;;;7399602;19;19966;-75
2023/07/16 02:48:53;;;;;;;11.30;2.10;;;25.00;99.90;;;;;;7402369;19;19952;-75
2023/07/16 02:51:19;;;;;;;10.77;2.35;;;25.00;99.90;;;;;;7401217;19;19914;-74
2023/07/16 02:53:44;;;;;;;8.57;2.72;;;25.00;99.90;;;;;;7398461;19;20688;-74
2023/07/16 02:56:10;;;;;;;8.95;2.22;;;24.90;99.90;;;;;;7399026;19;20283;-74
2023/07/16 02:58:36;;;;;;;10.10;2.42;;;24.90;99.90;;;;;;7400104;19;19919;-74
2023/07/16 03:01:02;;;;;;;10.95;2.45;;;25.00;99.90;;;;;;7399203;19;19918;-74
2023/07/16 03:03:27;;;;;;;10.43;2.25;;;25.00;99.90;;;;;;7401589;19;20350;-74
2023/07/16 03:05:53;;;;;;;8.55;1.90;;;25.00;99.90;;;;;;7401263;19;19933;-74
2023/07/16 03:08:19;;;;;;;9.88;1.85;;;24.90;99.90;;;;;;7399953;19;19925;-74
2023/07/16 03:10:45;;;;;;;13.35;2.53;;;25.00;99.90;;;;;;7400766;19;19927;-74
2023/07/16 03:13:11;;;;;;;7.65;2.20;;;25.00;99.90;;;;;;7398741;19;19919;-74
2023/07/16 03:15:37;;;;;;;9.25;2.05;;;25.00;99.90;;;;;;7400580;19;19928;-74
2023/07/16 03:18:03;;;;;;;9.32;2.20;;;25.00;99.90;;;;;;7401043;19;19923;-75
2023/07/16 03:20:29;;;;;;;10.93;1.98;;;25.00;99.90;;;;;;7399761;19;19918;-73
2023/07/16 03:22:55;;;;;;;11.52;1.90;;;25.00;99.90;;;;;;7400405;19;19923;-73
2023/07/16 03:25:21;;;;;;;11.93;2.35;;;25.00;99.90;;;;;;7396673;19;19918;-73
2023/07/16 03:27:46;;;;;;;10.57;1.92;;;25.00;99.90;;;;;;7399573;19;19910;-73
2023/07/16 03:30:12;;;;;;;9.10;2.05;;;24.90;99.90;;;;;;7398760;19;19990;-73
2023/07/16 03:32:38;;;;;;;9.27;2.60;;;24.90;99.90;;;;;;7399232;19;19914;-73
2023/07/16 03:35:04;;;;;;;10.52;2.00;;;24.90;99.90;;;;;;7396469;19;19978;-73
2023/07/16 03:37:30;;;;;;;10.48;2.08;;;25.00;99.90;;;;;;7397683;19;19987;-73
2023/07/16 03:39:55;;;;;;;8.15;1.70;;;25.00;99.90;;;;;;7396936;19;20428;-73
2023/07/16 03:42:22;;;;;;;9.73;1.52;;;25.00;99.90;;;;;;7397985;19;19929;-73
2023/07/16 03:44:48;;;;;;;8.40;1.85;;;25.10;99.90;;;;;;7405435;19;19986;-73
2023/07/16 03:47:13;;;;;;;14.40;2.55;;;25.10;99.90;;;;;;7405617;19;21155;-73
2023/07/16 03:49:39;;;;;;;10.98;2.25;;;25.10;99.90;;;;;;7405892;19;19915;-72
2023/07/16 03:52:06;;;;;;;7.90;1.67;;;25.20;99.90;;;;;;7350964;19;19938;-73
2023/07/16 03:54:31;;;;;;;7.75;1.98;;;25.20;99.90;;;;;;7403994;19;19915;-74
2023/07/16 03:56:57;;;;;;;13.68;1.90;;;25.30;99.90;;;;;;7405135;19;20949;-73
2023/07/16 03:59:23;;;;;;;10.27;1.85;;;25.30;99.90;;;;;;7379169;19;19970;-72
2023/07/16 04:01:49;;;;;;;10.18;2.22;;;25.30;99.90;;;;;;7402916;19;20259;-72
2023/07/16 04:04:15;;;;;;;7.85;1.95;;;25.30;99.90;;;;;;7400750;19;20346;-73
2023/07/16 04:06:40;;;;;;;7.72;1.77;;;25.30;99.90;;;;;;7403875;19;19926;-73
2023/07/16 04:09:06;;;;;;;8.93;1.95;;;25.20;99.90;;;;;;7401265;19;20492;-72
2023/07/16 04:11:32;;;;;;;8.57;2.10;;;25.10;99.90;;;;;;7405189;19;19922;-74
2023/07/16 04:13:57;;;;;;;11.55;1.80;;;25.10;99.90;;;;;;7402151;19;19925;-73
2023/07/16 04:16:23;;;;;;;6.47;1.83;;;25.10;99.70;;;;;;7404157;19;19919;-73
2023/07/16 04:18:49;;;;;;;7.90;1.98;;;25.00;99.10;;;;;;7404962;19;19915;-74
2023/07/16 04:21:15;;;;;;;5.82;1.55;;;25.00;98.70;;;;;;7406550;19;20495;-73
2023/07/16 04:23:41;;;;;;;5.28;1.58;;;25.00;98.50;;;;;;7401839;19;19939;-72
2023/07/16 04:26:06;;;;;;;7.30;1.75;;;25.00;98.30;;;;;;7401303;19;19927;-73
2023/07/16 04:28:32;;;;;;;7.93;1.65;;;25.00;98.10;;;;;;7402510;19;19970;-73
2023/07/16 04:30:58;;;;;;;6.88;1.60;;;25.00;98.10;;;;;;7403367;19;19922;-73
2023/07/16 04:33:24;;;;;;;10.10;1.80;;;24.90;98.10;;;;;;7401056;19;20010;-73
2023/07/16 04:35:49;;;;;;;4.55;1.67;;;25.00;98.00;;;;;;7404379;19;19922;-74
2023/07/16 04:38:15;;;;;;;5.78;1.60;;;24.90;97.70;;;;;;7402884;19;20420;-73
2023/07/16 04:40:43;;;;;;;6.00;1.60;;;24.90;97.50;;;;;;7402407;19;20279;-73
2023/07/16 04:43:09;;;;;;;7.00;1.60;;;24.80;97.40;;;;;;7402301;19;19982;-73
2023/07/16 04:45:34;;;;;;;6.07;1.63;;;24.80;97.40;;;;;;7405681;19;19922;-73
2023/07/16 04:48:00;;;;;;;5.28;1.33;;;24.80;97.40;;;;;;7402990;19;20069;-73
2023/07/16 04:50:26;;;;;;;5.68;1.42;;;24.80;97.10;;;;;;7403019;19;19923;-72
2023/07/16 04:52:53;;;;;;;8.75;1.58;;;24.80;96.70;;;;;;7404108;19;19990;-72
2023/07/16 04:55:18;;;;;;;6.40;1.83;;;24.90;96.60;;;;;;7399316;19;19953;-73
2023/07/16 04:57:44;;;;;;;7.53;1.92;;;24.90;96.50;;;;;;7405127;19;20236;-73
2023/07/16 05:00:11;;;;;;;4.53;1.30;;;24.90;96.20;;;;;;7402169;19;19918;-72
2023/07/16 05:02:37;;;;;;;5.28;1.60;;;24.90;95.30;;;;;;7401008;19;19922;-74
2023/07/16 05:05:04;;;;;;;4.47;1.40;;;24.80;94.30;;;;;;7401381;19;20266;-72
2023/07/16 05:07:30;;;;;;;3.92;1.50;;;24.90;93.60;;;;;;7403017;19;20264;-73
2023/07/16 05:09:56;;;;;;;5.50;1.23;;;24.90;92.90;;;;;;7404111;19;19919;-73
2023/07/16 05:12:24;;;;;;;3.00;1.00;;;24.80;91.70;;;;;;7400755;19;21319;-73
2023/07/16 05:14:49;;;;;;;3.65;1.20;;;24.80;91.40;;;;;;7401591;19;19957;-73
2023/07/16 05:17:15;;;;;;;4.55;2.13;;;24.90;91.00;;;;;;7402808;19;20341;-72
2023/07/16 05:19:42;;;;;;;3.60;1.15;;;25.00;90.70;;;;;;7400838;19;19923;-73
2023/07/16 05:22:07;;;;;;;5.55;1.88;;;25.00;90.80;;;;;;7349177;19;20505;-73
2023/07/16 05:24:33;;;;;;;5.53;1.40;;;25.10;90.90;;;;;;7402896;19;20011;-73
2023/07/16 05:26:59;;;;;;;5.75;1.33;;;25.10;90.90;;;;;;7401378;19;19997;-72
2023/07/16 05:29:25;;;;;;;3.40;1.30;;;25.20;90.90;;;;;;7378339;19;19926;-73
2023/07/16 05:31:50;;;;;;;5.15;1.38;;;25.20;90.90;;;;;;7403406;19;19922;-73
2023/07/16 05:34:17;;;;;;;6.55;2.60;;;25.20;91.00;;;;;;7401870;19;19926;-73
2023/07/16 05:36:46;;;;;;;4.25;1.58;;;25.20;91.00;;;;;;7401746;19;19922;-74
2023/07/16 05:39:12;;;;;;;4.07;1.48;;;25.20;90.90;;;;;;7399661;19;19994;-73
2023/07/16 05:41:40;;;;;;;3.50;1.60;;;25.20;90.90;;;;;;7399951;19;19922;-72
2023/07/16 05:44:05;;;;;;;5.18;1.60;;;25.20;90.90;;;;;;7400723;19;19953;-73
2023/07/16 05:46:32;;;;;;;5.32;2.40;;;25.30;90.90;;;;;;7400348;19;19918;-74
2023/07/16 05:48:58;;;;;;;4.60;1.77;;;25.20;90.70;;;;;;7400534;19;19918;-74
2023/07/16 05:51:24;;;;;;;3.63;1.60;;;25.30;90.40;;;;;;7400219;19;20481;-73
2023/07/16 05:53:50;;;;;;;3.42;1.38;;;25.30;90.50;;;;;;7399927;19;19919;-72
2023/07/16 05:56:16;;;;;;;4.22;1.50;;;25.30;90.40;;;;;;7399659;19;19994;-72
2023/07/16 05:58:42;;;;;;;5.65;1.50;;;25.30;90.20;;;;;;7401343;19;19926;-73
2023/07/16 06:01:08;;;;;;;3.70;1.30;;;25.40;90.00;;;;;;7401234;19;19914;-73
2023/07/16 06:03:34;;;;;;;4.43;1.92;;;25.50;89.80;;;;;;7402073;19;19936;-73
2023/07/16 06:06:00;;;;;;;8.15;1.30;;;25.60;88.90;;;;;;7401818;19;20343;-73
2023/07/16 06:08:27;;;;;;;4.95;1.20;;;25.60;88.00;;;;;;7399370;19;19954;-73
2023/07/16 06:10:53;;;;;;;4.10;1.50;;;25.70;87.40;;;;;;7398658;19;19910;-73
2023/07/16 06:13:19;;;;;;;2.80;1.17;;;25.90;86.40;;;;;;7398228;19;19918;-72
2023/07/16 06:15:47;;;;;;;3.75;1.42;;;25.90;84.90;;;;;;7401860;19;20268;-73
2023/07/16 06:18:13;;;;;;;3.58;1.23;;;26.10;84.10;;;;;;7400625;19;19926;-73
2023/07/16 06:20:38;;;;;;;3.60;1.10;;;26.20;83.30;;;;;;7399674;19;19964;-73
2023/07/16 06:23:04;;;;;;;3.75;1.33;;;26.30;82.10;;;;;;7378165;19;19926;-74
2023/07/16 06:25:30;;;;;;;2.75;1.02;;;26.40;81.40;;;;;;7386783;19;19914;-73
2023/07/16 06:27:56;;;;;;;4.72;1.30;;;26.30;81.10;;;;;;7403909;19;19927;-72
2023/07/16 06:30:21;;;;;;;2.78;1.05;;;26.30;81.10;;;;;;7399391;19;19918;-74
2023/07/16 06:32:47;;;;;;;3.95;1.00;;;26.40;80.70;;;;;;7400842;19;19919;-73
2023/07/16 06:35:13;;;;;;;6.20;1.38;;;26.40;79.70;;;;;;7400221;19;19922;-73
2023/07/16 06:37:39;;;;;;;2.92;1.27;;;26.20;80.30;;;;;;7392439;19;19933;-74
2023/07/16 06:40:05;;;;;;;4.30;1.60;;;26.10;81.10;;;;;;7399538;19;20259;-72
2023/07/16 06:42:31;;;;;;;3.17;1.73;;;26.10;81.20;;;;;;7402303;19;19915;-74
2023/07/16 06:44:57;;;;;;;4.93;1.35;;;26.10;81.00;;;;;;7400899;19;19929;-73
2023/07/16 06:47:22;;;;;;;3.25;1.05;;;26.20;82.00;;;;;;7398855;19;19946;-73
2023/07/16 06:49:48;;;;;;;4.10;1.40;;;26.20;82.20;;;;;;7399919;19;19970;-72
2023/07/16 06:52:21;;;;;;;4.28;1.60;;;26.30;82.30;;;;;;7397795;19;20256;-73
2023/07/16 06:54:47;;;;;;;5.55;1.83;;;26.30;82.40;;;;;;7399721;19;19921;-74
2023/07/16 06:57:13;;;;;;;3.85;1.42;;;26.40;82.70;;;;;;7400396;19;19986;-73
2023/07/16 06:59:41;;;;;;;6.68;1.30;;;26.60;82.70;;;;;;7400987;19;19940;-74
2023/07/16 07:02:06;;;;;;;3.42;0.90;;;26.70;82.40;;;;;;7398131;19;19974;-73
2023/07/16 07:04:32;;;;;;;3.05;1.35;;;26.80;81.90;;;;;;7399632;19;20377;-73
2023/07/16 07:06:58;;;;;;;3.90;1.20;;;26.90;81.00;;;;;;7401493;19;19919;-73
2023/07/16 07:09:24;;;;;;;4.10;1.02;;;26.90;80.50;;;;;;7399849;19;19922;-73
2023/07/16 07:11:50;;;;;;;3.13;1.33;;;26.90;80.10;;;;;;7401652;19;19926;-73
2023/07/16 07:14:15;;;;;;;4.53;1.27;;;26.90;79.80;;;;;;7400161;19;20351;-73
2023/07/16 07:16:41;;;;;;;4.38;1.33;;;27.00;79.50;;;;;;7399881;19;19943;-74
2023/07/16 07:19:08;;;;;;;4.15;1.05;;;27.10;79.30;;;;;;7397618;19;19910;-75
2023/07/16 07:21:33;;;;;;;5.30;1.20;;;27.10;78.40;;;;;;7402041;19;19978;-73
2023/07/16 07:23:59;;;;;;;3.63;0.90;;;26.90;77.20;;;;;;7400241;19;20924;-73
2023/07/16 07:26:25;;;;;;;4.25;1.35;;;26.90;77.10;;;;;;7398676;19;19928;-73
2023/07/16 07:28:51;;;;;;;5.05;1.10;;;27.00;76.80;;;;;;7397422;19;19937;-73
2023/07/16 07:31:16;;;;;;;4.22;1.40;;;27.00;76.40;;;;;;7365913;19;19915;-73
2023/07/16 07:33:42;;;;;;;3.28;1.30;;;27.10;75.90;;;;;;7400018;19;19911;-74
2023/07/16 07:36:09;;;;;;;3.85;1.27;;;27.10;75.60;;;;;;7396952;19;19914;-73
2023/07/16 07:38:35;;;;;;;5.75;1.20;;;27.10;75.80;;;;;;7400346;19;19934;-74
2023/07/16 07:41:01;;;;;;;5.00;1.90;;;27.00;75.40;;;;;;7398010;19;19943;-74
2023/07/16 07:43:27;;;;;;;5.05;1.80;;;26.90;75.70;;;;;;7398927;19;19941;-73
2023/07/16 07:45:52;;;;;;;3.50;1.23;;;26.80;76.40;;;;;;7399764;19;19947;-75
2023/07/16 07:48:21;;;;;;;3.60;1.25;;;27.00;75.80;;;;;;7396356;19;19925;-74
2023/07/16 07:50:47;;;;;;;3.95;1.30;;;27.00;75.10;;;;;;7394982;19;20014;-72
2023/07/16 07:53:14;;;;;;;;;;;27.00;74.90;;;;;;7396760;19;19937;-73
2023/07/16 07:55:40;;;;;;;4.22;1.23;;;26.90;75.00;;;;;;7377743;19;19922;-74
2023/07/16 07:58:07;;;;;;;6.20;1.50;;;27.00;75.00;;;;;;7390371;19;20002;-73
2023/07/16 08:00:33;;;;;;;5.32;1.33;;;26.90;74.50;;;;;;7394079;19;19932;-72
2023/07/16 08:02:59;;;;;;;3.05;1.63;;;27.10;74.20;;;;;;7397890;19;20253;-73
2023/07/16 08:05:25;;;;;;;4.15;1.55;;;27.30;73.90;;;;;;7396203;19;19982;-74
2023/07/16 08:07:52;;;;;;;2.53;1.65;;;27.40;73.40;;;;;;7398817;19;20337;-73
2023/07/16 08:10:18;;;;;;;3.65;1.23;;;27.40;73.40;;;;;;7394579;19;20054;-73
2023/07/16 08:12:45;;;;;;;3.97;1.90;;;27.60;73.40;;;;;;7396108;19;19915;-73
2023/07/16 08:15:14;;;;;;;3.42;1.60;;;27.90;72.20;;;;;;7392986;19;19911;-72
2023/07/16 08:17:44;;;;;;;3.55;1.33;;;28.10;71.80;;;;;;7396609;19;19911;-73
2023/07/16 08:20:11;;;;;;;2.60;1.10;;;28.30;72.20;;;;;;7396334;19;20346;-72
2023/07/16 08:22:37;;;;;;;2.55;1.33;;;28.00;72.10;;;;;;7394945;19;19914;-72
2023/07/16 08:25:03;;;;;;;3.38;1.05;;;27.90;72.40;;;;;;7396398;19;19922;-74
2023/07/16 08:27:30;;;;;;;4.80;1.73;;;28.10;72.40;;;;;;7396929;19;19918;-73
2023/07/16 08:29:56;;;;;;;4.38;1.40;;;28.30;72.00;;;;;;7396927;19;19914;-72
2023/07/16 08:32:22;;;;;;;3.10;1.15;;;28.60;71.20;;;;;;7402075;19;20357;-72
2023/07/16 08:34:48;;;;;;;5.93;1.92;;;28.80;70.30;;;;;;7403055;19;20142;-73
2023/07/16 08:37:15;;;;;;;3.60;1.35;;;28.90;69.60;;;;;;7401870;19;19930;-73
2023/07/16 08:39:41;;;;;;;4.03;1.30;;;28.60;69.40;;;;;;7404698;19;20334;-73
2023/07/16 08:42:10;;;;;;;5.05;1.67;;;28.50;69.60;;;;;;7400997;19;19938;-75
2023/07/16 08:44:37;;;;;;;5.30;1.63;;;28.60;69.40;;;;;;7405451;19;19922;-74
2023/07/16 08:47:04;;;;;;;3.75;1.63;;;28.70;68.90;;;;;;7399769;19;19918;-73
2023/07/16 08:49:33;;;;;;;4.25;1.42;;;28.70;69.00;;;;;;7405254;19;19914;-74
2023/07/16 08:52:01;;;;;;;4.50;1.73;;;28.70;68.60;;;;;;7398236;19;19918;-75
2023/07/16 08:54:27;;;;;;;3.05;1.67;;;28.50;68.50;;;;;;7385110;19;20514;-74
2023/07/16 08:56:53;;;;;;;3.83;1.17;;;28.60;68.80;;;;;;7379989;19;19979;-74
2023/07/16 08:59:20;;;;;;;3.70;1.63;;;28.90;68.30;;;;;;7399091;19;19930;-73
2023/07/16 09:01:49;;;;;;;4.22;1.50;;;29.00;67.50;;;;;;7401844;19;19913;-74
2023/07/16 09:04:16;;;;;;;3.78;1.75;;;29.20;67.70;;;;;;7392286;19;20836;-74
2023/07/16 09:06:42;;;;;;;7.38;1.88;;;29.50;66.50;;;;;;7401149;19;19923;-74
2023/07/16 09:09:08;;;;;;;5.15;1.80;;;29.40;66.60;;;;;;7397526;19;19947;-75
2023/07/16 09:11:34;;;;;;;4.35;1.40;;;29.60;66.70;;;;;;7401717;19;21151;-74
2023/07/16 09:14:03;;;;;;;3.75;1.70;;;29.50;66.70;;;;;;7402279;19;19946;-73
2023/07/16 09:16:33;;;;;;;4.60;1.63;;;29.40;67.00;;;;;;7399984;19;19914;-74
2023/07/16 09:19:10;;;;;;;3.28;1.65;;;29.70;66.80;;;;;;7399620;19;19930;-73
2023/07/16 09:21:36;;;;;;;3.30;1.33;;;30.10;65.80;;;;;;7401283;19;19999;-74
2023/07/16 09:24:07;;;;;;;4.32;1.67;;;30.00;65.50;;;;;;7397921;19;19918;-74
2023/07/16 09:26:33;;;;;;;5.88;1.77;;;29.60;66.90;;;;;;7402409;19;19938;-74
2023/07/16 09:28:59;;;;;;;4.35;1.60;;;29.40;67.60;;;;;;7400994;19;19926;-73
2023/07/16 09:31:25;;;;;;;4.55;2.58;;;29.00;68.40;;;;;;7390532;19;19915;-74
2023/07/16 09:33:52;;;;;;;3.65;1.60;;;29.00;68.80;;;;;;7397006;19;19914;-75
2023/07/16 09:36:26;;;;;;;4.78;1.38;;;29.30;68.50;;;;;;7389483;19;19919;-75
2023/07/16 09:38:57;;;;;;;6.22;2.13;;;29.40;68.00;;;;;;7401080;19;20245;-75
2023/07/16 09:41:24;;;;;;;4.75;1.60;;;29.50;67.90;;;;;;7391722;19;19931;-74
2023/07/16 09:43:50;;;;;;;3.63;1.50;;;29.00;69.00;;;;;;7379691;19;19918;-75
2023/07/16 09:46:16;;;;;;;4.00;2.30;;;28.80;69.70;;;;;;7397435;19;19919;-74
2023/07/16 09:48:41;;;;;;;6.13;1.80;;;29.20;69.00;;;;;;7402715;19;19954;-75
2023/07/16 09:51:12;;;;;;;6.03;1.40;;;29.20;68.80;;;;;;7397364;19;20341;-76
2023/07/16 09:53:42;;;;;;;4.45;1.63;;;29.30;69.30;;;;;;7397464;19;19921;-76
2023/07/16 09:56:10;;;;;;;3.83;1.65;;;29.50;68.20;;;;;;7391082;19;20307;-77
2023/07/16 09:58:37;;;;;;;5.82;1.63;;;29.60;67.90;;;;;;7386618;19;19926;-76
2023/07/16 10:01:03;;;;;;;;;;;29.50;67.50;;;;;;7388094;19;19921;-76
2023/07/16 10:03:29;;;;;;;4.70;1.52;;;29.40;66.80;;;;;;7388502;19;19922;-76
2023/07/16 10:06:06;;;;;;;5.93;2.03;;;29.20;67.70;;;;;;7392021;19;19914;-75
2023/07/16 10:08:34;;;;;;;3.67;1.98;;;29.60;66.60;;;;;;7396685;19;19925;-76
2023/07/16 10:11:00;;;;;;;3.95;1.73;;;29.80;66.10;;;;;;7401452;19;20639;-76
2023/07/16 10:13:27;;;;;;;4.05;1.27;;;29.80;65.50;;;;;;7391939;19;19915;-74
2023/07/16 10:15:57;;;;;;;4.78;1.70;;;30.00;65.30;;;;;;7390172;19;19911;-74
2023/07/16 10:18:33;;;;;;;4.57;1.70;;;30.00;64.30;;;;;;7385997;19;20382;-73
2023/07/16 10:21:09;;;;;;;4.00;1.40;;;29.30;65.70;;;;;;7395877;19;19915;-73
2023/07/16 10:23:43;;;;;;;5.05;1.35;;;29.50;66.10;;;;;;7400002;19;19927;-73
2023/07/16 10:26:11;;;;;;;4.53;1.75;;;28.60;67.20;;;;;;7395756;19;19939;-73
2023/07/16 10:28:38;;;;;;;4.75;2.45;;;28.70;67.60;;;;;;7398179;19;19922;-74
2023/07/16 10:31:05;;;;;;;4.40;1.65;;;28.90;67.90;;;;;;7396623;19;19992;-74
2023/07/16 10:33:31;;;;;;;3.40;1.40;;;29.10;67.20;;;;;;7400205;19;19922;-74
2023/07/16 10:36:00;;;;;;;4.28;1.80;;;29.00;66.50;;;;;;7396554;19;20595;-73
2023/07/16 10:38:26;;;;;;;4.63;1.77;;;29.10;67.20;;;;;;7396540;19;19925;-74
2023/07/16 10:40:52;;;;;;;3.83;2.55;;;29.40;67.40;;;;;;7398979;19;20249;-73
2023/07/16 10:43:18;;;;;;;3.60;1.60;;;29.00;67.60;;;;;;7395268;19;19930;-73
2023/07/16 10:45:47;;;;;;;4.70;1.67;;;29.30;67.50;;;;;;7399031;19;19930;-73
2023/07/16 10:48:12;;;;;;;4.95;2.38;;;29.60;66.90;;;;;;7394875;19;20291;-73
2023/07/16 10:50:40;;;;;;;4.35;1.52;;;29.80;66.90;;;;;;7400966;19;19919;-73
2023/07/16 10:53:06;;;;;;;4.43;2.00;;;29.60;66.90;;;;;;7373555;19;20278;-74
2023/07/16 10:55:37;;;;;;;4.45;1.52;;;29.00;68.10;;;;;;7398348;19;20023;-73
2023/07/16 10:58:07;;;;;;;2.88;1.30;;;29.00;68.30;;;;;;7395505;19;19922;-73
2023/07/16 11:00:37;;;;;;;4.57;1.55;;;29.00;67.70;;;;;;7399194;19;19922;-74
2023/07/16 11:03:03;;;;;;;4.47;2.05;;;29.00;68.20;;;;;;7396608;19;20265;-75
2023/07/16 11:05:29;;;;;;;4.45;1.17;;;29.30;67.60;;;;;;7400876;19;19923;-74
2023/07/16 11:07:55;;;;;;;3.42;1.52;;;29.20;67.80;;;;;;7396270;19;19926;-75
2023/07/16 11:10:23;;;;;;;3.58;1.63;;;29.40;66.90;;;;;;7398928;19;19942;-75
2023/07/16 11:12:53;;;;;;;5.45;1.95;;;29.30;67.40;;;;;;7398476;19;20012;-74
2023/07/16 11:15:30;;;;;;;3.90;1.40;;;29.60;67.00;;;;;;7397869;19;19911;-73
2023/07/16 11:17:57;;;;;;;3.40;1.25;;;29.80;65.30;;;;;;7399630;19;20329;-74
2023/07/16 11:20:23;;;;;;;3.35;1.63;;;29.70;65.70;;;;;;7398836;19;19948;-74
2023/07/16 11:22:48;;;;;;;4.10;2.00;;;30.40;64.50;;;;;;7400410;19;19919;-74
2023/07/16 11:25:14;;;;;;;4.30;1.35;;;30.80;63.80;;;;;;7397852;19;19914;-74
2023/07/16 11:27:43;;;;;;;4.28;1.80;;;31.40;62.70;;;;;;7399644;19;19946;-75
2023/07/16 11:30:09;;;;;;;3.63;1.45;;;31.40;61.10;;;;;;7398252;19;19925;-73
2023/07/16 11:32:42;;;;;;;4.78;1.83;;;30.50;62.00;;;;;;7369451;19;19918;-73
2023/07/16 11:35:11;;;;;;;2.75;1.33;;;30.60;62.90;;;;;;7392655;19;20513;-74
2023/07/16 11:37:37;;;;;;;3.95;1.70;;;30.70;62.10;;;;;;7396369;19;19914;-74
2023/07/16 11:40:05;;;;;;;5.32;1.92;;;30.10;63.60;;;;;;7393248;19;19918;-74
2023/07/16 11:42:38;;;;;;;7.38;1.58;;;30.30;63.40;;;;;;7395661;19;19922;-73
2023/07/16 11:45:05;;;;;;;4.00;2.10;;;30.70;62.70;;;;;;7395552;19;19926;-72
2023/07/16 11:47:31;;;;;;;4.50;1.67;;;30.70;62.60;;;;;;7397934;19;19918;-72
2023/07/16 11:49:58;;;;;;;5.85;2.05;;;31.00;62.90;;;;;;7398215;19;19922;-74
2023/07/16 11:52:28;;;;;;;5.47;1.73;;;31.40;61.40;;;;;;7395664;19;20384;-74
2023/07/16 11:55:03;;;;;;;6.25;1.67;;;31.20;61.00;;;;;;7398945;19;19937;-73
2023/07/16 11:57:29;;;;;;;6.47;1.95;;;31.40;60.20;;;;;;7387285;19;19922;-74
2023/07/16 11:59:55;;;;;;;9.68;2.00;;;31.00;61.10;;;;;;7383296;19;19925;-73
2023/07/16 12:02:21;;;;;;;5.80;2.00;;;31.30;61.60;;;;;;7393955;19;19929;-73
2023/07/16 12:04:47;;;;;;;4.55;2.20;;;31.00;62.10;;;;;;7397174;19;19922;-74
2023/07/16 12:07:13;;;;;;;8.52;2.30;;;31.10;61.80;;;;;;7399291;19;19919;-74
2023/07/16 12:09:44;;;;;;;5.75;1.88;;;31.80;60.50;;;;;;7393142;19;19910;-75
2023/07/16 12:12:10;;;;;;;6.85;3.75;;;31.90;59.60;;;;;;7392984;19;20237;-74
2023/07/16 12:14:36;;;;;;;6.82;2.60;;;32.00;59.40;;;;;;7394094;19;19972;-75
2023/07/16 12:17:02;;;;;;;;;;;32.40;57.70;;;;;;7399782;19;19910;-74
2023/07/16 12:19:28;;;;;;;6.75;2.47;;;32.80;56.70;;;;;;7395289;19;19911;-74
2023/07/16 12:21:54;;;;;;;;;;;32.30;56.30;;;;;;7395855;19;20110;-73
2023/07/16 12:24:20;;;;;;;5.60;2.25;;;32.50;56.60;;;;;;7386657;19;19911;-74
2023/07/16 12:26:46;;;;;;;;;;;32.80;56.60;;;;;;7400840;19;19932;-74
2023/07/16 12:29:12;;;;;;;4.93;2.13;;;33.20;56.70;;;;;;7389409;19;19927;-73
2023/07/16 12:31:37;;;;;;;;;;;33.20;56.50;;;;;;7396922;19;19956;-74
2023/07/16 12:34:04;;;;;;;5.55;2.75;;;33.80;56.00;;;;;;7393576;19;19922;-75
2023/07/16 12:36:30;;;;;;;5.65;2.33;;;33.90;55.50;;;;;;7386603;19;19975;-75
2023/07/16 12:38:56;;;;;;;6.65;2.65;;;33.70;53.90;;;;;;7392830;19;19946;-75
2023/07/16 12:41:22;;;;;;;6.38;2.60;;;33.50;54.50;;;;;;7403671;19;19942;-74
2023/07/16 12:43:49;;;;;;;;;;;33.20;54.80;;;;;;7392747;19;19985;-74
2023/07/16 12:46:15;;;;;;;7.30;2.72;;;33.90;55.20;;;;;;7401102;19;20387;-73